Time;durP1;ratioP1;P1;durP2;ratioP2;P2;SDS_P1;SDS_P2;PMS_P1;PMS_P2;Temp;Humidity;BMP_temperature;BMP_pressure;BME280_temperature;BME280_humidity;BME280_pressure;Samples;Min_cycle;Max_cycle;Signal;HPM_P1;HPM_P2
2021/08/13 00:02:35;;;;;;;11.45;6.88;;;;;;;;;;6183735;28;19995;-73
2021/08/13 00:05:36;;;;;;;12.65;6.80;;;;;;;;;;6191169;28;20548;-73
2021/08/13 00:08:38;;;;;;;8.20;6.65;;;;;;;;;;6199199;28;20463;-72
2021/08/13 00:11:41;;;;;;;11.10;6.90;;;;;;;;;;6198852;28;20417;-72
2021/08/13 00:14:44;;;;;;;11.38;6.78;;;;;;;;;;6208245;28;20606;-72
2021/08/13 00:17:45;;;;;;;;;;;;;;;;;;6191555;28;20048;-73
2021/08/13 00:20:48;;;;;;;7.25;6.47;;;;;;;;;;6193441;28;20005;-72
2021/08/13 00:23:51;;;;;;;8.95;7.07;;;;;;;;;;6188621;28;20053;-72
2021/08/13 00:26:54;;;;;;;8.55;6.90;;;;;;;;;;6194193;28;20041;-72
2021/08/13 00:29:56;;;;;;;10.18;7.15;;;;;;;;;;6200014;28;20383;-73
2021/08/13 00:32:57;;;;;;;8.10;7.30;;;;;;;;;;6189640;28;20166;-72
2021/08/13 00:35:59;;;;;;;10.15;7.55;;;;;;;;;;6191324;28;20553;-72
2021/08/13 00:39:02;;;;;;;10.18;7.25;;;;;;;;;;6203624;28;20125;-73
2021/08/13 00:42:05;;;;;;;8.02;7.03;;;;;;;;;;6203960;28;20057;-73
2021/08/13 00:45:09;;;;;;;10.73;8.00;;;;;;;;;;6206293;28;20133;-73
2021/08/13 00:48:11;;;;;;;9.65;7.90;;;;;;;;;;6201036;28;20433;-72
2021/08/13 00:51:13;;;;;;;12.07;7.95;;;;;;;;;;6197021;28;20057;-72
2021/08/13 00:54:15;;;;;;;12.13;7.78;;;;;;;;;;6208175;28;20193;-72
2021/08/13 00:57:18;;;;;;;8.57;7.47;;;;;;;;;;6203089;28;20046;-72
2021/08/13 01:00:19;;;;;;;;;;;;;;;;;;6193644;28;20129;-71
2021/08/13 01:03:22;;;;;;;17.55;8.07;;;;;;;;;;6190314;28;19955;-71
2021/08/13 01:06:23;;;;;;;14.50;9.02;;;;;;;;;;6195565;28;20418;-72
2021/08/13 01:09:25;;;;;;;12.27;8.00;;;;;;;;;;6208503;28;20042;-72
2021/08/13 01:12:31;;;;;;;11.73;8.15;;;;;;;;;;6196298;28;20185;-72
2021/08/13 01:15:37;;;;;;;11.15;7.97;;;;;;;;;;6188944;28;20052;-69
2021/08/13 01:18:42;;;;;;;10.25;7.57;;;;;;;;;;6194089;28;20053;-70
2021/08/13 01:21:47;;;;;;;10.45;8.95;;;;;;;;;;6187500;28;20497;-70
2021/08/13 01:24:49;;;;;;;12.60;8.27;;;;;;;;;;6200810;28;20042;-71
2021/08/13 01:27:53;;;;;;;9.23;8.30;;;;;;;;;;6189453;28;20066;-70
2021/08/13 01:30:55;;;;;;;8.32;7.43;;;;;;;;;;6193853;28;20124;-72
2021/08/13 01:34:00;;;;;;;9.75;7.38;;;;;;;;;;6193329;28;20158;-71
2021/08/13 01:37:03;;;;;;;16.52;8.32;;;;;;;;;;6188732;28;20137;-71
2021/08/13 01:40:07;;;;;;;11.07;8.48;;;;;;;;;;6196709;28;20045;-72
2021/08/13 01:43:09;;;;;;;13.30;8.68;;;;;;;;;;6196088;28;20089;-71
2021/08/13 01:46:12;;;;;;;13.23;8.05;;;;;;;;;;6187528;28;20045;-71
2021/08/13 01:49:16;;;;;;;10.30;7.30;;;;;;;;;;6200064;28;20509;-71
2021/08/13 01:52:18;;;;;;;8.70;7.90;;;;;;;;;;6187467;28;20058;-71
2021/08/13 01:55:20;;;;;;;11.25;7.47;;;;;;;;;;6191052;28;20042;-70
2021/08/13 01:58:22;;;;;;;11.18;7.85;;;;;;;;;;6202765;28;20152;-70
2021/08/13 02:01:24;;;;;;;11.00;8.32;;;;;;;;;;6181187;28;20050;-70
2021/08/13 02:04:27;;;;;;;10.40;8.10;;;;;;;;;;6205236;28;20043;-70
2021/08/13 02:07:29;;;;;;;9.20;8.20;;;;;;;;;;6184931;28;20095;-70
2021/08/13 02:10:32;;;;;;;10.93;7.88;;;;;;;;;;6189199;28;20056;-71
2021/08/13 02:13:37;;;;;;;9.50;7.43;;;;;;;;;;6200417;28;20502;-70
2021/08/13 02:16:41;;;;;;;11.52;7.35;;;;;;;;;;6184557;28;20074;-70
2021/08/13 02:19:47;;;;;;;9.63;7.70;;;;;;;;;;6204883;28;20641;-70
2021/08/13 02:22:49;;;;;;;12.68;6.85;;;;;;;;;;6191219;28;20145;-70
2021/08/13 02:25:51;;;;;;;11.13;7.25;;;;;;;;;;6187446;28;20046;-70
2021/08/13 02:28:52;;;;;;;8.98;7.50;;;;;;;;;;6207363;28;20046;-70
2021/08/13 02:31:54;;;;;;;10.93;6.85;;;;;;;;;;6193691;28;20135;-70
2021/08/13 02:34:57;;;;;;;9.50;7.65;;;;;;;;;;6205140;28;20528;-70
2021/08/13 02:37:59;;;;;;;;;;;;;;;;;;6192106;28;20174;-70
2021/08/13 02:41:03;;;;;;;8.38;7.57;;;;;;;;;;6199638;28;20478;-70
2021/08/13 02:44:06;;;;;;;7.93;6.90;;;;;;;;;;6205442;28;20560;-70
2021/08/13 02:47:10;;;;;;;9.48;8.13;;;;;;;;;;6195640;28;20069;-70
2021/08/13 02:50:14;;;;;;;13.18;8.77;;;;;;;;;;6197831;28;20578;-70
2021/08/13 02:53:19;;;;;;;12.90;8.45;;;;;;;;;;6195093;28;20783;-70
2021/08/13 02:56:21;;;;;;;11.25;8.48;;;;;;;;;;6196544;28;20108;-70
2021/08/13 02:59:25;;;;;;;13.57;8.85;;;;;;;;;;6200609;28;20119;-70
2021/08/13 03:02:27;;;;;;;10.43;8.80;;;;;;;;;;6188246;28;20047;-70
2021/08/13 03:05:30;;;;;;;9.85;8.63;;;;;;;;;;6189478;28;20060;-70
2021/08/13 03:08:32;;;;;;;9.65;8.75;;;;;;;;;;6199370;28;20038;-70
2021/08/13 03:11:34;;;;;;;13.60;9.10;;;;;;;;;;6191245;28;20037;-70
2021/08/13 03:14:36;;;;;;;10.80;8.80;;;;;;;;;;6199383;28;20177;-70
2021/08/13 03:17:38;;;;;;;13.00;8.70;;;;;;;;;;6196259;28;21485;-70
2021/08/13 03:20:41;;;;;;;10.23;8.07;;;;;;;;;;6187037;28;20124;-70
2021/08/13 03:23:43;;;;;;;;;;;;;;;;;;6201228;28;20037;-70
2021/08/13 03:26:44;;;;;;;12.75;8.52;;;;;;;;;;6189420;28;20598;-70
2021/08/13 03:29:46;;;;;;;8.98;7.97;;;;;;;;;;6198534;28;20137;-70
2021/08/13 03:32:48;;;;;;;11.15;8.55;;;;;;;;;;6185895;28;20038;-70
2021/08/13 03:35:51;;;;;;;14.83;8.67;;;;;;;;;;6184057;28;20053;-70
2021/08/13 03:38:53;;;;;;;;;;;;;;;;;;6197773;28;20195;-70
2021/08/13 03:41:55;;;;;;;12.98;7.60;;;;;;;;;;6189590;28;19957;-70
2021/08/13 03:44:57;;;;;;;12.93;8.68;;;;;;;;;;6200712;28;20073;-70
2021/08/13 03:47:58;;;;;;;8.73;7.75;;;;;;;;;;6180115;28;20068;-70
2021/08/13 03:51:01;;;;;;;12.73;7.82;;;;;;;;;;6191302;28;20108;-70
2021/08/13 03:54:05;;;;;;;10.35;8.05;;;;;;;;;;6200613;28;20053;-70
2021/08/13 03:57:07;;;;;;;11.95;7.70;;;;;;;;;;6190910;28;20122;-70
2021/08/13 04:00:09;;;;;;;9.68;7.85;;;;;;;;;;6190948;28;20189;-70
2021/08/13 04:03:11;;;;;;;9.30;7.82;;;;;;;;;;6190351;28;20192;-70
2021/08/13 04:06:14;;;;;;;10.75;8.02;;;;;;;;;;6190716;28;20116;-70
2021/08/13 04:09:15;;;;;;;9.55;7.30;;;;;;;;;;6195649;28;20133;-70
2021/08/13 04:12:17;;;;;;;9.93;7.50;;;;;;;;;;6188349;28;20050;-70
2021/08/13 04:15:18;;;;;;;9.05;7.43;;;;;;;;;;6191036;28;20133;-70
2021/08/13 04:18:20;;;;;;;12.20;7.65;;;;;;;;;;6197866;28;20132;-70
2021/08/13 04:21:23;;;;;;;11.38;7.70;;;;;;;;;;6193070;28;20042;-70
2021/08/13 04:24:24;;;;;;;14.35;7.80;;;;;;;;;;6209409;28;20138;-70
2021/08/13 04:27:26;;;;;;;8.75;7.40;;;;;;;;;;6194920;28;20501;-70
2021/08/13 04:30:28;;;;;;;9.07;7.72;;;;;;;;;;6199331;28;20113;-70
2021/08/13 04:33:29;;;;;;;9.00;7.28;;;;;;;;;;6199734;28;20065;-70
2021/08/13 04:36:32;;;;;;;9.63;8.02;;;;;;;;;;6200272;28;20596;-70
2021/08/13 04:39:34;;;;;;;;;;;;;;;;;;6204118;28;20054;-70
2021/08/13 04:42:35;;;;;;;9.30;6.85;;;;;;;;;;6196265;28;21579;-70
2021/08/13 04:45:37;;;;;;;9.68;7.47;;;;;;;;;;6192870;28;20806;-70
2021/08/13 04:48:39;;;;;;;9.35;6.88;;;;;;;;;;6197840;28;20811;-70
2021/08/13 04:51:42;;;;;;;11.35;7.05;;;;;;;;;;6194092;28;20050;-70
2021/08/13 04:54:46;;;;;;;;;;;;;;;;;;6201132;28;20111;-71
2021/08/13 04:57:48;;;;;;;9.02;6.50;;;;;;;;;;6195356;28;20271;-70
2021/08/13 05:00:49;;;;;;;10.88;7.50;;;;;;;;;;6191615;28;20721;-70
2021/08/13 05:03:51;;;;;;;7.13;6.38;;;;;;;;;;6208531;28;20046;-70
2021/08/13 05:07:06;;;;;;;10.32;6.40;;;;;;;;;;6206087;28;20185;-70
2021/08/13 05:10:10;;;;;;;12.50;7.07;;;;;;;;;;6204533;28;20383;-70
2021/08/13 05:13:12;;;;;;;7.53;6.78;;;;;;;;;;6198723;28;20133;-70
2021/08/13 05:16:13;;;;;;;10.20;7.07;;;;;;;;;;6191700;28;20042;-70
2021/08/13 05:19:15;;;;;;;7.78;6.60;;;;;;;;;;6197796;28;20045;-70
2021/08/13 05:22:18;;;;;;;10.38;7.10;;;;;;;;;;6194754;28;20050;-70
2021/08/13 05:25:20;;;;;;;14.77;7.60;;;;;;;;;;6194412;28;20057;-70
2021/08/13 05:28:21;;;;;;;7.28;5.95;;;;;;;;;;6200352;28;20105;-70
2021/08/13 05:31:23;;;;;;;13.77;6.90;;;;;;;;;;6189216;28;20137;-70
2021/08/13 05:34:25;;;;;;;13.38;7.57;;;;;;;;;;6198291;28;20876;-70
2021/08/13 05:37:28;;;;;;;13.18;7.35;;;;;;;;;;6191850;28;20141;-70
2021/08/13 05:40:29;;;;;;;;;;;;;;;;;;6195730;28;20168;-70
2021/08/13 05:43:31;;;;;;;11.65;7.00;;;;;;;;;;6200224;28;20739;-70
2021/08/13 05:46:32;;;;;;;9.82;6.82;;;;;;;;;;6188260;28;20042;-70
2021/08/13 05:49:34;;;;;;;9.50;6.80;;;;;;;;;;6200635;28;20049;-70
2021/08/13 05:52:37;;;;;;;8.57;6.28;;;;;;;;;;6195142;28;20038;-70
2021/08/13 05:55:39;;;;;;;8.68;6.53;;;;;;;;;;6195623;28;20046;-70
2021/08/13 05:58:40;;;;;;;8.18;6.53;;;;;;;;;;6203106;28;20116;-70
2021/08/13 06:01:42;;;;;;;8.23;5.93;;;;;;;;;;6182386;28;20449;-70
2021/08/13 06:04:44;;;;;;;9.35;6.50;;;;;;;;;;6200280;28;20081;-70
2021/08/13 06:07:46;;;;;;;9.10;5.95;;;;;;;;;;6189508;28;20078;-70
2021/08/13 06:10:48;;;;;;;8.50;5.70;;;;;;;;;;6186930;28;20058;-70
2021/08/13 06:13:50;;;;;;;11.45;5.95;;;;;;;;;;6203145;28;20042;-70
2021/08/13 06:16:51;;;;;;;10.60;5.88;;;;;;;;;;6189683;28;20117;-70
2021/08/13 06:19:53;;;;;;;8.43;6.00;;;;;;;;;;6198038;28;20041;-70
2021/08/13 06:22:56;;;;;;;7.85;5.63;;;;;;;;;;6188757;28;20049;-70
2021/08/13 06:25:58;;;;;;;6.38;5.72;;;;;;;;;;6196028;28;20092;-70
2021/08/13 06:28:59;;;;;;;10.45;6.60;;;;;;;;;;6203820;28;20054;-70
2021/08/13 06:32:01;;;;;;;8.35;5.93;;;;;;;;;;6180974;28;20507;-70
2021/08/13 06:35:02;;;;;;;9.35;5.43;;;;;;;;;;6198028;28;20185;-70
2021/08/13 06:38:07;;;;;;;10.40;6.55;;;;;;;;;;6187644;28;23265;-70
2021/08/13 06:41:09;;;;;;;7.45;6.38;;;;;;;;;;6188863;28;20049;-70
2021/08/13 06:44:11;;;;;;;10.07;5.70;;;;;;;;;;6205769;28;20238;-70
2021/08/13 06:47:13;;;;;;;8.00;5.90;;;;;;;;;;6180824;28;20042;-70
2021/08/13 06:50:15;;;;;;;9.45;6.20;;;;;;;;;;6192282;28;20143;-70
2021/08/13 06:53:18;;;;;;;9.70;5.57;;;;;;;;;;6195444;28;20057;-70
2021/08/13 06:56:20;;;;;;;7.00;5.88;;;;;;;;;;6192666;28;20186;-70
2021/08/13 06:59:21;;;;;;;7.05;5.85;;;;;;;;;;6199939;28;20095;-70
2021/08/13 07:02:23;;;;;;;7.65;5.63;;;;;;;;;;6183670;28;20142;-70
2021/08/13 07:05:25;;;;;;;12.90;6.10;;;;;;;;;;6189363;28;20046;-70
2021/08/13 07:08:28;;;;;;;7.43;5.70;;;;;;;;;;6194554;28;20186;-70
2021/08/13 07:11:29;;;;;;;;;;;;;;;;;;6188667;28;20089;-70
2021/08/13 07:14:31;;;;;;;9.07;5.18;;;;;;;;;;6204615;28;20028;-70
2021/08/13 07:17:32;;;;;;;20.98;5.57;;;;;;;;;;6184219;28;20201;-70
2021/08/13 07:20:34;;;;;;;9.52;5.40;;;;;;;;;;6189075;28;20599;-71
2021/08/13 07:23:37;;;;;;;11.60;5.63;;;;;;;;;;6196025;28;20057;-70
2021/08/13 07:26:39;;;;;;;9.80;5.88;;;;;;;;;;6190323;28;20127;-70
2021/08/13 07:29:40;;;;;;;6.63;5.82;;;;;;;;;;6200901;28;20129;-70
2021/08/13 07:32:44;;;;;;;8.95;5.63;;;;;;;;;;6184127;28;20170;-70
2021/08/13 07:35:45;;;;;;;11.10;5.95;;;;;;;;;;6188127;28;20181;-70
2021/08/13 07:38:48;;;;;;;7.55;5.90;;;;;;;;;;6200356;28;20046;-70
2021/08/13 07:41:50;;;;;;;9.73;5.70;;;;;;;;;;6191816;28;20074;-69
2021/08/13 07:44:51;;;;;;;6.90;5.25;;;;;;;;;;6198356;28;20220;-69
2021/08/13 07:47:53;;;;;;;8.45;5.40;;;;;;;;;;6185023;28;20184;-69
2021/08/13 07:50:54;;;;;;;11.88;5.20;;;;;;;;;;6184694;28;20073;-69
2021/08/13 07:53:57;;;;;;;12.38;6.25;;;;;;;;;;6199213;28;20196;-69
2021/08/13 07:56:59;;;;;;;9.02;5.63;;;;;;;;;;6189545;28;20136;-69
2021/08/13 08:00:01;;;;;;;7.03;5.68;;;;;;;;;;6196419;28;20129;-69
2021/08/13 08:03:02;;;;;;;11.33;6.03;;;;;;;;;;6183434;28;20049;-69
2021/08/13 08:06:04;;;;;;;9.13;6.20;;;;;;;;;;6184972;28;20137;-69
2021/08/13 08:09:07;;;;;;;8.50;5.80;;;;;;;;;;6196894;28;20088;-69
2021/08/13 08:12:09;;;;;;;8.50;5.97;;;;;;;;;;6190278;28;20097;-69
2021/08/13 08:15:11;;;;;;;12.20;6.55;;;;;;;;;;6191088;28;20590;-69
2021/08/13 08:18:13;;;;;;;8.98;6.45;;;;;;;;;;6186719;28;20180;-69
2021/08/13 08:21:14;;;;;;;12.18;6.28;;;;;;;;;;6183344;28;20069;-69
2021/08/13 08:24:17;;;;;;;7.50;5.80;;;;;;;;;;6195565;28;20244;-69
2021/08/13 08:27:19;;;;;;;8.90;6.60;;;;;;;;;;6190191;28;20172;-69
2021/08/13 08:30:21;;;;;;;10.90;6.53;;;;;;;;;;6190274;28;20250;-69
2021/08/13 08:33:22;;;;;;;12.10;6.15;;;;;;;;;;6191149;28;20144;-69
2021/08/13 08:36:24;;;;;;;7.38;5.90;;;;;;;;;;6192314;28;20049;-69
2021/08/13 08:39:27;;;;;;;11.90;8.48;;;;;;;;;;6198401;28;20133;-69
2021/08/13 08:42:29;;;;;;;9.75;7.30;;;;;;;;;;6190224;28;20485;-69
2021/08/13 08:45:32;;;;;;;7.88;7.07;;;;;;;;;;6189139;28;20198;-69
2021/08/13 08:48:35;;;;;;;9.68;6.28;;;;;;;;;;6191073;28;20136;-69
2021/08/13 08:51:37;;;;;;;9.68;6.72;;;;;;;;;;6187883;28;20056;-69
2021/08/13 08:54:43;;;;;;;11.15;8.35;;;;;;;;;;6201463;28;20092;-69
2021/08/13 08:57:45;;;;;;;14.02;10.15;;;;;;;;;;6186501;28;20085;-69
2021/08/13 09:00:47;;;;;;;13.35;9.05;;;;;;;;;;6184219;28;20587;-69
2021/08/13 09:03:49;;;;;;;11.23;9.37;;;;;;;;;;6198779;28;20078;-69
2021/08/13 09:06:51;;;;;;;12.35;9.95;;;;;;;;;;6206194;28;20065;-69
2021/08/13 09:09:54;;;;;;;13.00;7.40;;;;;;;;;;6208784;28;20173;-69
2021/08/13 09:12:55;;;;;;;13.63;9.20;;;;;;;;;;6198728;28;20137;-69
2021/08/13 09:16:10;;;;;;;9.57;7.73;;;;;;;;;;6198210;28;20152;-69
2021/08/13 09:19:11;;;;;;;13.00;8.82;;;;;;;;;;6206539;28;20483;-69
2021/08/13 09:22:14;;;;;;;10.88;9.68;;;;;;;;;;6195558;28;20074;-69
2021/08/13 09:25:26;;;;;;;16.45;11.30;;;;;;;;;;6202973;28;20104;-69
2021/08/13 09:28:46;;;;;;;11.03;10.03;;;;;;;;;;6199262;28;20090;-69
2021/08/13 09:31:51;;;;;;;14.38;11.20;;;;;;;;;;6194618;28;20088;-69
2021/08/13 09:34:52;;;;;;;13.98;9.25;;;;;;;;;;6201504;28;20069;-69
2021/08/13 09:37:54;;;;;;;14.00;10.70;;;;;;;;;;6192967;28;20042;-69
2021/08/13 09:41:05;;;;;;;14.38;10.02;;;;;;;;;;6202645;28;20216;-69
2021/08/13 09:44:08;;;;;;;11.43;9.80;;;;;;;;;;6212427;28;20438;-69
2021/08/13 09:47:10;;;;;;;;;;;;;;;;;;6195541;28;20133;-69
2021/08/13 09:50:13;;;;;;;13.15;8.70;;;;;;;;;;6199229;28;19925;-69
2021/08/13 09:53:15;;;;;;;11.48;8.82;;;;;;;;;;6202945;28;20416;-69
2021/08/13 09:56:27;;;;;;;12.38;9.23;;;;;;;;;;6197301;28;20124;-69
2021/08/13 09:59:28;;;;;;;11.70;7.93;;;;;;;;;;6209403;28;20056;-69
2021/08/13 10:02:33;;;;;;;17.73;12.93;;;;;;;;;;6194707;28;20085;-69
2021/08/13 10:05:35;;;;;;;15.15;12.20;;;;;;;;;;6197917;28;20748;-69
2021/08/13 10:08:40;;;;;;;15.55;11.25;;;;;;;;;;6204914;28;20058;-69
2021/08/13 10:11:55;;;;;;;14.82;11.05;;;;;;;;;;6200209;28;20042;-69
2021/08/13 10:14:57;;;;;;;15.35;13.77;;;;;;;;;;6206296;28;20548;-69
2021/08/13 10:18:00;;;;;;;15.50;13.88;;;;;;;;;;6196323;28;20085;-69
2021/08/13 10:21:02;;;;;;;15.43;11.82;;;;;;;;;;6194998;28;20539;-69
2021/08/13 10:24:05;;;;;;;13.00;11.70;;;;;;;;;;6206805;28;20433;-69
2021/08/13 10:27:08;;;;;;;14.23;11.15;;;;;;;;;;6191415;28;20122;-69
2021/08/13 10:30:11;;;;;;;14.70;11.43;;;;;;;;;;6203211;28;20064;-69
2021/08/13 10:33:14;;;;;;;10.93;9.20;;;;;;;;;;6201555;28;20572;-69
2021/08/13 10:36:17;;;;;;;15.48;11.10;;;;;;;;;;6196428;28;20565;-69
2021/08/13 10:39:19;;;;;;;12.23;10.27;;;;;;;;;;6205430;28;20175;-69
2021/08/13 10:42:23;;;;;;;12.07;9.60;;;;;;;;;;6199085;28;20137;-69
2021/08/13 10:45:29;;;;;;;12.98;9.02;;;;;;;;;;6195453;28;21008;-69
2021/08/13 10:48:31;;;;;;;12.93;11.63;;;;;;;;;;6196243;28;20054;-69
2021/08/13 10:51:33;;;;;;;13.43;9.73;;;;;;;;;;6197473;28;20069;-69
2021/08/13 10:54:40;;;;;;;12.95;9.52;;;;;;;;;;6207027;28;20081;-69
2021/08/13 10:57:59;;;;;;;13.50;11.82;;;;;;;;;;6201560;28;20482;-69
2021/08/13 11:01:06;;;;;;;10.35;8.35;;;;;;;;;;6182559;28;20046;-69
2021/08/13 11:04:13;;;;;;;10.77;8.43;;;;;;;;;;6201568;28;20038;-69
2021/08/13 11:07:15;;;;;;;11.20;7.53;;;;;;;;;;6192090;28;20043;-69
2021/08/13 11:10:50;;;;;;;11.38;8.52;;;;;;;;;;6193268;28;20073;-70
2021/08/13 11:13:53;;;;;;;9.73;8.27;;;;;;;;;;6198805;28;20468;-69
2021/08/13 11:16:55;;;;;;;11.05;8.77;;;;;;;;;;6184639;28;20160;-69
2021/08/13 11:19:58;;;;;;;13.55;7.43;;;;;;;;;;6196582;28;20181;-70
2021/08/13 11:23:02;;;;;;;9.95;6.60;;;;;;;;;;6189640;28;20065;-70
2021/08/13 11:26:07;;;;;;;12.65;8.90;;;;;;;;;;6191118;28;20625;-70
2021/08/13 11:29:43;;;;;;;11.38;7.40;;;;;;;;;;6201297;28;20049;-69
2021/08/13 11:32:45;;;;;;;7.97;6.45;;;;;;;;;;6178924;28;20100;-70
2021/08/13 11:35:47;;;;;;;8.20;7.28;;;;;;;;;;6186590;28;20069;-70
2021/08/13 11:38:59;;;;;;;12.65;7.18;;;;;;;;;;6201232;28;20205;-70
2021/08/13 11:42:04;;;;;;;7.75;6.95;;;;;;;;;;6189514;28;20438;-70
2021/08/13 11:45:09;;;;;;;11.43;6.47;;;;;;;;;;6199809;28;20105;-70
2021/08/13 11:48:12;;;;;;;9.10;7.43;;;;;;;;;;6190302;28;20054;-70
2021/08/13 11:51:14;;;;;;;11.00;8.05;;;;;;;;;;6191644;28;20038;-69
2021/08/13 11:54:26;;;;;;;9.82;6.55;;;;;;;;;;6196655;28;20124;-70
2021/08/13 11:57:27;;;;;;;9.68;6.88;;;;;;;;;;6190803;28;20105;-70
2021/08/13 12:00:32;;;;;;;8.75;6.43;;;;;;;;;;6191415;28;20232;-70
2021/08/13 12:03:33;;;;;;;12.00;6.80;;;;;;;;;;6199228;28;20488;-70
2021/08/13 12:06:35;;;;;;;9.75;6.30;;;;;;;;;;6190661;28;20525;-69
2021/08/13 12:09:38;;;;;;;11.00;6.63;;;;;;;;;;6209878;28;20127;-69
2021/08/13 12:12:41;;;;;;;10.73;6.40;;;;;;;;;;6186977;28;20058;-69
2021/08/13 12:15:44;;;;;;;7.45;5.75;;;;;;;;;;6190204;28;20109;-69
2021/08/13 12:18:47;;;;;;;8.10;5.75;;;;;;;;;;6191762;28;20128;-69
2021/08/13 12:21:53;;;;;;;9.23;5.90;;;;;;;;;;6184878;28;20043;-72
2021/08/13 12:24:54;;;;;;;6.85;5.25;;;;;;;;;;6198146;28;20074;-72
2021/08/13 12:27:56;;;;;;;7.57;5.00;;;;;;;;;;6193251;28;20131;-71
2021/08/13 12:31:05;;;;;;;7.82;5.95;;;;;;;;;;6196927;28;20052;-72
2021/08/13 12:34:07;;;;;;;10.07;5.15;;;;;;;;;;6172257;28;20081;-71
2021/08/13 12:37:10;;;;;;;6.80;4.90;;;;;;;;;;6187898;28;20054;-71
2021/08/13 12:40:13;;;;;;;6.85;4.80;;;;;;;;;;6197926;28;20552;-71
2021/08/13 12:43:15;;;;;;;10.63;5.00;;;;;;;;;;6197679;28;20069;-71
2021/08/13 12:46:18;;;;;;;6.30;4.72;;;;;;;;;;6188939;28;20181;-72
2021/08/13 12:49:20;;;;;;;7.32;4.90;;;;;;;;;;6201188;28;20164;-71
2021/08/13 12:52:24;;;;;;;7.40;4.88;;;;;;;;;;6186688;28;20061;-71
2021/08/13 12:55:35;;;;;;;7.32;5.38;;;;;;;;;;6199269;28;20561;-72
2021/08/13 12:58:37;;;;;;;8.98;5.03;;;;;;;;;;6207054;28;20137;-71
2021/08/13 13:01:40;;;;;;;8.05;4.72;;;;;;;;;;6188369;28;20042;-72
2021/08/13 13:04:43;;;;;;;7.55;4.75;;;;;;;;;;6203433;28;20090;-73
2021/08/13 13:07:44;;;;;;;10.57;5.47;;;;;;;;;;6195441;28;20499;-72
2021/08/13 13:10:46;;;;;;;8.55;5.22;;;;;;;;;;6197224;28;20193;-73
2021/08/13 13:13:49;;;;;;;8.68;5.38;;;;;;;;;;6206046;28;20124;-72
2021/08/13 13:17:09;;;;;;;6.22;4.72;;;;;;;;;;6184686;28;20557;-73
2021/08/13 13:20:12;;;;;;;9.38;5.88;;;;;;;;;;6194915;28;20147;-73
2021/08/13 13:23:16;;;;;;;7.40;5.55;;;;;;;;;;6206249;28;20054;-73
2021/08/13 13:26:17;;;;;;;9.30;5.28;;;;;;;;;;6191719;28;20050;-73
2021/08/13 13:29:19;;;;;;;7.07;4.80;;;;;;;;;;6203278;28;20494;-73
2021/08/13 13:32:22;;;;;;;8.52;4.90;;;;;;;;;;6181368;28;20526;-72
2021/08/13 13:35:25;;;;;;;7.47;4.72;;;;;;;;;;6193144;28;20124;-72
2021/08/13 13:38:28;;;;;;;9.43;5.00;;;;;;;;;;6198766;28;20121;-72
2021/08/13 13:41:29;;;;;;;7.80;5.20;;;;;;;;;;6195144;28;20505;-72
2021/08/13 13:44:31;;;;;;;10.57;5.10;;;;;;;;;;6200804;28;20325;-72
2021/08/13 13:47:34;;;;;;;5.22;4.63;;;;;;;;;;6187912;28;20180;-73
2021/08/13 13:50:35;;;;;;;6.63;4.72;;;;;;;;;;6192255;28;20093;-73
2021/08/13 13:53:37;;;;;;;5.15;4.65;;;;;;;;;;6202056;28;21021;-73
2021/08/13 13:56:41;;;;;;;11.30;5.20;;;;;;;;;;6194102;28;20172;-72
2021/08/13 13:59:42;;;;;;;8.60;4.47;;;;;;;;;;6202483;28;20052;-72
2021/08/13 14:02:46;;;;;;;6.40;4.78;;;;;;;;;;6185629;28;20470;-72
2021/08/13 14:05:48;;;;;;;10.80;4.80;;;;;;;;;;6191693;28;20138;-72
2021/08/13 14:08:51;;;;;;;8.32;4.90;;;;;;;;;;6199496;28;20482;-72
2021/08/13 14:11:53;;;;;;;8.18;5.20;;;;;;;;;;6190448;28;20049;-72
2021/08/13 14:14:54;;;;;;;;;;;;;;;;;;6201070;28;20514;-72
2021/08/13 14:17:57;;;;;;;9.90;5.20;;;;;;;;;;6187219;28;19937;-72
2021/08/13 14:20:58;;;;;;;6.40;4.68;;;;;;;;;;6192582;28;20062;-73
2021/08/13 14:24:00;;;;;;;10.65;5.05;;;;;;;;;;6197207;28;20043;-72
2021/08/13 14:27:02;;;;;;;11.02;4.95;;;;;;;;;;6191488;28;20050;-72
2021/08/13 14:30:06;;;;;;;10.57;4.70;;;;;;;;;;6199371;28;20058;-72
2021/08/13 14:33:09;;;;;;;11.50;4.85;;;;;;;;;;6185784;28;20416;-72
2021/08/13 14:36:10;;;;;;;7.38;4.72;;;;;;;;;;6192740;28;20046;-72
2021/08/13 14:39:12;;;;;;;6.68;4.82;;;;;;;;;;6198689;28;20553;-72
2021/08/13 14:42:14;;;;;;;7.72;4.75;;;;;;;;;;6195471;28;20046;-72
2021/08/13 14:45:16;;;;;;;8.50;4.50;;;;;;;;;;6203457;28;20056;-72
2021/08/13 14:48:19;;;;;;;6.72;4.85;;;;;;;;;;6174127;28;20077;-72
2021/08/13 14:51:20;;;;;;;9.85;5.10;;;;;;;;;;6191136;28;20088;-73
2021/08/13 14:54:23;;;;;;;6.50;4.60;;;;;;;;;;6201390;28;20235;-72
2021/08/13 14:57:25;;;;;;;6.30;4.53;;;;;;;;;;6188795;28;20117;-72
2021/08/13 15:00:27;;;;;;;8.23;5.15;;;;;;;;;;6187947;28;20710;-72
2021/08/13 15:03:30;;;;;;;6.22;5.00;;;;;;;;;;6196087;28;20429;-72
2021/08/13 15:06:31;;;;;;;8.80;5.03;;;;;;;;;;6194280;28;20096;-72
2021/08/13 15:09:33;;;;;;;8.05;5.20;;;;;;;;;;6198600;28;20530;-72
2021/08/13 15:12:36;;;;;;;7.32;5.00;;;;;;;;;;6191571;28;20153;-72
2021/08/13 15:15:37;;;;;;;6.10;4.65;;;;;;;;;;6188651;28;20042;-72
2021/08/13 15:18:41;;;;;;;7.82;5.47;;;;;;;;;;6193920;28;20283;-72
2021/08/13 15:21:44;;;;;;;6.50;5.40;;;;;;;;;;6187268;28;20090;-72
2021/08/13 15:24:45;;;;;;;8.48;5.75;;;;;;;;;;6196667;28;20143;-74
2021/08/13 15:27:47;;;;;;;7.57;5.50;;;;;;;;;;6182169;28;20518;-74
2021/08/13 15:30:49;;;;;;;7.88;6.15;;;;;;;;;;6176567;28;20069;-72
2021/08/13 15:33:52;;;;;;;7.55;5.28;;;;;;;;;;6195241;28;20567;-74
2021/08/13 15:36:53;;;;;;;9.07;5.55;;;;;;;;;;6186308;28;20104;-74
2021/08/13 15:39:55;;;;;;;10.52;6.05;;;;;;;;;;6194040;28;20052;-72
2021/08/13 15:42:58;;;;;;;9.82;5.65;;;;;;;;;;6189667;28;20389;-72
2021/08/13 15:46:00;;;;;;;8.07;5.53;;;;;;;;;;6192150;28;20057;-72
2021/08/13 15:49:03;;;;;;;9.10;5.40;;;;;;;;;;6204603;28;20042;-72
2021/08/13 15:52:06;;;;;;;10.32;6.03;;;;;;;;;;6191422;28;20176;-74
2021/08/13 15:55:08;;;;;;;8.77;6.00;;;;;;;;;;6197532;28;20104;-74
2021/08/13 15:58:10;;;;;;;8.82;6.05;;;;;;;;;;6199118;28;20039;-72
2021/08/13 16:01:11;;;;;;;;;;;;;;;;;;6188164;28;20038;-72
2021/08/13 16:04:15;;;;;;;9.55;6.07;;;;;;;;;;6202685;28;19926;-69
2021/08/13 16:07:16;;;;;;;7.93;6.00;;;;;;;;;;6186472;28;20050;-71
2021/08/13 16:10:18;;;;;;;9.75;6.13;;;;;;;;;;6193135;28;20742;-73
2021/08/13 16:13:19;;;;;;;8.75;6.30;;;;;;;;;;6197589;28;20088;-72
2021/08/13 16:16:21;;;;;;;9.32;6.13;;;;;;;;;;6186266;28;20105;-72
2021/08/13 16:19:24;;;;;;;11.85;6.55;;;;;;;;;;6194721;28;20493;-73
2021/08/13 16:22:27;;;;;;;8.77;6.53;;;;;;;;;;6182913;28;20111;-72
2021/08/13 16:25:28;;;;;;;12.43;6.22;;;;;;;;;;6193757;28;20068;-72
2021/08/13 16:28:30;;;;;;;8.95;5.55;;;;;;;;;;6202483;28;20050;-71
2021/08/13 16:31:32;;;;;;;8.82;5.45;;;;;;;;;;6192571;28;20137;-72
2021/08/13 16:34:35;;;;;;;9.65;5.95;;;;;;;;;;6204722;28;20054;-71
2021/08/13 16:37:36;;;;;;;8.20;5.60;;;;;;;;;;6198402;28;20062;-72
2021/08/13 16:40:38;;;;;;;7.53;5.70;;;;;;;;;;6193004;28;20537;-72
2021/08/13 16:43:39;;;;;;;11.27;5.63;;;;;;;;;;6196378;28;20410;-71
2021/08/13 16:46:41;;;;;;;8.50;5.75;;;;;;;;;;6184829;28;20056;-71
2021/08/13 16:49:44;;;;;;;8.38;6.00;;;;;;;;;;6195109;28;20727;-69
2021/08/13 16:52:45;;;;;;;9.27;5.90;;;;;;;;;;6184266;28;20647;-72
2021/08/13 16:55:47;;;;;;;7.15;5.10;;;;;;;;;;6177861;28;20200;-73
2021/08/13 16:58:49;;;;;;;10.13;5.43;;;;;;;;;;6191494;28;20055;-74
2021/08/13 17:01:50;;;;;;;7.38;5.13;;;;;;;;;;6192781;28;20077;-75
2021/08/13 17:04:53;;;;;;;12.05;5.70;;;;;;;;;;6211422;28;20042;-76
2021/08/13 17:07:54;;;;;;;7.28;4.93;;;;;;;;;;6188949;28;20388;-75
2021/08/13 17:10:56;;;;;;;7.40;4.90;;;;;;;;;;6193549;28;20053;-75
2021/08/13 17:13:58;;;;;;;9.27;5.05;;;;;;;;;;6197833;28;20058;-73
2021/08/13 17:17:00;;;;;;;8.52;5.00;;;;;;;;;;6182240;28;20061;-75
2021/08/13 17:20:03;;;;;;;8.25;5.18;;;;;;;;;;6195448;28;20479;-76
2021/08/13 17:23:05;;;;;;;12.35;5.35;;;;;;;;;;6190210;28;20177;-76
2021/08/13 17:26:06;;;;;;;9.32;5.22;;;;;;;;;;6194490;28;20125;-75
2021/08/13 17:29:08;;;;;;;6.57;4.83;;;;;;;;;;6201568;28;20120;-77
2021/08/13 17:32:09;;;;;;;7.93;5.17;;;;;;;;;;6189061;28;20525;-76
2021/08/13 17:35:12;;;;;;;8.05;4.70;;;;;;;;;;6195953;28;20424;-77
2021/08/13 17:38:14;;;;;;;10.70;4.78;;;;;;;;;;6197312;28;20133;-75
2021/08/13 17:41:18;;;;;;;8.55;5.40;;;;;;;;;;6190487;28;20092;-75
2021/08/13 17:44:19;;;;;;;8.77;4.88;;;;;;;;;;6205341;28;20463;-75
2021/08/13 17:47:21;;;;;;;7.33;4.57;;;;;;;;;;6187949;28;20054;-75
2021/08/13 17:50:24;;;;;;;8.73;6.22;;;;;;;;;;6199028;28;20532;-77
2021/08/13 17:53:25;;;;;;;7.80;4.45;;;;;;;;;;6199038;28;20061;-75
2021/08/13 17:56:27;;;;;;;8.50;4.88;;;;;;;;;;6196132;28;20132;-75
2021/08/13 17:59:29;;;;;;;8.97;3.93;;;;;;;;;;6200581;28;20050;-75
2021/08/13 18:02:30;;;;;;;12.23;5.27;;;;;;;;;;6182792;28;20042;-75
2021/08/13 18:05:33;;;;;;;7.03;4.75;;;;;;;;;;6192278;28;20199;-77
2021/08/13 18:08:35;;;;;;;8.77;5.05;;;;;;;;;;6188109;28;20185;-76
2021/08/13 18:11:36;;;;;;;11.48;4.80;;;;;;;;;;6190738;28;20099;-75
2021/08/13 18:14:38;;;;;;;7.23;4.80;;;;;;;;;;6202026;28;20514;-74